Station 45203 - Huron Buoy Image indicating link to RSS feed of recent meteorological observations for station 45203


Conditions at 45203 as of
(4:30 am EDT)
0830 GMT on 05/09/2026:
     

Click on the graph icon in the table below to see a time series plot of the last five days of that observation.

5-day plot - Wind Direction Wind Direction (WDIR): SW ( 220 deg true )
5-day plot - Wind Speed Wind Speed (WSPD): 5.8 kts
5-day plot - Wind Gust Wind Gust (GST): 7.8 kts
5-day plot - Wave Height Wave Height (WVHT): 0.0 ft
5-day plot - Mean Wave Direction Mean Wave Direction (MWD): NE ( 44 deg true )
5-day plot - Water Temperature Water Temperature (WTMP): 55.9 °F
5-day plot - Wind Speed at 10 Meters Wind Speed at 10 meters (WSPD10M): 7.8 kts
5-day plot - Wind Speed at 20 Meters Wind Speed at 20 meters (WSPD20M): 7.8 kts
5-day plot -  Wind Speed, Wind Gust and Atmospheric Pressure Combined plot of Wind Speed, Gust, and Air Pressure
Previous observations
TIME
(EDT)
5-day plot - Wind Direction
WDIR
 
5-day plot - Wind Speed
WSPD
kts
5-day plot - Wind Gust
GST
kts
5-day plot - Wave Height
WVHT
ft
5-day plot - Dominant Wave Period
DPD
sec
5-day plot - Average Wave Period
APD
sec
5-day plot - Mean Wave Direction
MWD
 
5-day plot - Atmospheric Pressure
PRES
in
5-day plot - Pressure Tendency
PTDY
in
5-day plot - Air Temperature
ATMP
°F
5-day plot - Water Temperature
WTMP
°F
5-day plot - Dew Point
DEWP
°F
5-day plot - Salinity
SAL
psu
5-day plot - Visibility
VIS
nmi
5-day plot - Tide (above MLLW)
TIDE
ft
2026-05-09 04:20 am SW 5.8 7.8 0.0--NNE--- 55.9----
2026-05-09 04:10 am SW 5.8 7.8 0.0-- NE--- 55.9----
2026-05-09 04:00 am SW 5.8 9.7 0.0--NNE--- 55.9----
2026-05-09 03:50 am SW 5.8 7.8 0.0-- N--- 55.9----
2026-05-09 03:40 am SW 7.8 9.7 0.0--WNW--- 55.9----
2026-05-09 03:30 am SW 7.8 9.7 0.0-- NE--- 55.9----
2026-05-09 03:20 am SW 7.8 9.7 0.0--NNE--- 55.9----
2026-05-09 03:10 am SW 5.8 9.7 0.0-- NE--- 56.1----
2026-05-09 03:00 am SW 7.8 9.7 0.0--NNE--- 56.1----
2026-05-09 02:50 am SW 7.8 11.7 0.0--NNE--- 55.9----
2026-05-09 02:40 am SW 5.8 9.7 0.0--NNE--- 56.1----
2026-05-09 02:30 am SW 7.8 9.7 0.0--NNE--- 56.1----
2026-05-09 02:20 am SW 7.8 9.7 0.0--NNE--- 56.1----
2026-05-09 02:10 am SW 7.8 11.7 0.0--NNE--- 55.9----
2026-05-09 02:00 am SW 7.8 11.7 0.0--NNE--- 55.9----
2026-05-09 01:50 am SW 7.8 9.7 0.0--NNE--- 56.1----
2026-05-09 01:40 am SW 7.8 9.7 0.0-- NE--- 56.1----
2026-05-09 01:20 am SW 7.8 11.7 0.0--SSW--- 56.1----
2026-05-09 01:10 amSSW 9.7 11.7 0.0--NNE--- 56.1----
2026-05-09 01:00 amSSW 9.7 11.7 0.0--NNE--- 56.1----
2026-05-09 12:50 amSSW 7.8 11.7 0.0------ 56.1----
2026-05-09 12:40 amSSW 5.8 9.7 0.0-- N--- 56.1----
2026-05-09 12:30 amSSW 5.8 9.7 0.0-- N--- 56.1----
2026-05-09 12:20 amSSW 7.8 7.8 0.0-- E--- 56.1----
2026-05-09 12:00 amSSW 7.8 13.6 0.0--NNE--- 56.1----
2026-05-08 11:50 pmSSW 7.8 11.7 0.0--NNE--- 56.1----
2026-05-08 11:40 pmSSW 7.8 11.7 0.0--NNE--- 56.1----
2026-05-08 11:20 pm SW 9.7 13.6 0.0-- W--- 56.1----
2026-05-08 11:10 pm SW 7.8 11.7 0.3--WSW--- 56.1----
2026-05-08 11:00 pm SW 11.7 17.5 0.0-- W--- 56.1----
2026-05-08 10:50 pm SW 9.7 15.5 0.0-- W--- 56.1----
2026-05-08 10:40 pm SW 9.7 13.6 0.0-- SW--- 56.1----
2026-05-08 10:30 pm SW 9.7 15.5 0.0-- E--- 56.1----
2026-05-08 10:20 pm SW 7.8 11.7 0.0-- S--- 56.1----
2026-05-08 10:10 pmSSW 7.8 9.7 0.0-- SW--- 56.1----
2026-05-08 10:00 pmSSW 9.7 13.6 0.0--SSW--- 56.1----
2026-05-08 09:50 pmSSW 9.7 13.6 0.0--SSW--- 56.1----
2026-05-08 09:40 pmSSW 9.7 11.7 0.0-- E--- 56.1----
2026-05-08 09:30 pmSSW 9.7 13.6 0.0--WSW--- 56.1----
2026-05-08 09:20 pmSSW 9.7 13.6 0.0--ENE--- 56.1----
2026-05-08 09:10 pm SW 7.8 11.7 0.0--ENE--- 56.3----
2026-05-08 09:00 pm SW 7.8 11.7 0.0-- NE--- 56.3----
2026-05-08 08:50 pmSSW 7.8 11.7 0.0-- N--- 56.1----
2026-05-08 08:40 pmSSW 9.7 13.6 0.0--WSW--- 56.3----
2026-05-08 08:30 pm SW 9.7 13.6 0.3-- SW--- 56.3----
2026-05-08 08:20 pmSSW 9.7 15.5 0.3-- SW--- 56.3----
2026-05-08 08:10 pm SW 11.7 15.5 0.3-- SW--- 56.3----
2026-05-08 08:00 pmSSW 11.7 17.5 0.0--SSW--- 56.3----
2026-05-08 07:50 pmSSW 11.7 15.5 0.0-- NE--- 56.3----
2026-05-08 07:40 pmSSW 9.7 13.6 0.0-- NE--- 56.3----
2026-05-08 07:30 pmSSW 7.8 11.7 0.0-- NE--- 56.3----
2026-05-08 07:20 pmSSW 7.8 9.7 0.0-- N--- 56.3----
2026-05-08 07:10 pmSSW 7.8 9.7 0.0--ENE--- 56.3----
2026-05-08 07:00 pmSSW 7.8 13.6 0.0-- N--- 56.3----
2026-05-08 06:50 pmSSW 5.8 9.7 0.0-- N--- 56.3----
2026-05-08 06:40 pm S 5.8 9.7 0.3-- N--- 56.3----
2026-05-08 06:30 pmSSW 7.8 11.7 0.3--NNE--- 56.3----
2026-05-08 06:20 pmSSW 7.8 11.7 0.3--NNW--- 56.3----
2026-05-08 06:10 pmSSW 7.8 11.7 0.0--NNE--- 56.3----
2026-05-08 06:00 pmSSW 7.8 11.7 0.0-- N--- 56.3----
2026-05-08 05:50 pmSSW 7.8 9.7 0.0--NNE--- 56.5----
2026-05-08 05:40 pmSSW 7.8 11.7 0.3-- NE--- 56.3----
2026-05-08 05:30 pmSSW 7.8 11.7 0.3-- N--- 56.3----
2026-05-08 05:20 pm SW 7.8 11.7 0.3-- N--- 56.3----
2026-05-08 05:10 pmSSW 7.8 11.7 0.3--NNE--- 56.5----
2026-05-08 05:00 pmSSW 7.8 9.7 0.0--NNE--- 56.5----
2026-05-08 04:50 pm SW 7.8 11.7 0.3-- N--- 56.5----
2026-05-08 04:40 pm SW 7.8 13.6 0.3--NNE--- 56.5----
2026-05-08 04:30 pm SW 9.7 15.5 0.3-- SW--- 56.5----
2026-05-08 04:20 pm SW 9.7 15.5 0.3--NNE--- 56.5----
2026-05-08 04:10 pmSSW 11.7 19.4 0.3--WSW--- 56.5----
2026-05-08 04:00 pmSSW 11.7 19.4 0.3--WSW--- 56.5----
2026-05-08 03:50 pm SW 11.7 19.4 0.3--WSW--- 56.5----
2026-05-08 03:40 pm SW 13.6 21.4 0.3-- W--- 56.5----
2026-05-08 03:30 pmSSW 13.6 21.4 0.3-- W--- 56.5----
2026-05-08 03:20 pm SW 11.7 19.4 0.3--WSW--- 56.7----
2026-05-08 03:10 pm SW 13.6 21.4 0.3-- N--- 56.7----
2026-05-08 03:00 pm SW 13.6 17.5 0.3-- N--- 56.7----
2026-05-08 02:50 pmWSW 11.7 17.5 0.3-- N--- 56.7----
2026-05-08 02:40 pm SW 11.7 19.4 0.3--NNW--- 56.5----
2026-05-08 02:30 pmWSW 11.7 15.5 0.3-- N--- 56.5----
2026-05-08 02:20 pm SW 11.7 21.4 0.3--NNE--- 56.5----
2026-05-08 02:10 pm SW 11.7 15.5 0.3--NNE--- 56.3----
2026-05-08 02:00 pmSSW 11.7 19.4 0.3-- N--- 56.3----
2026-05-08 01:50 pm SW 11.7 17.5 0.3-- N--- 56.3----
2026-05-08 01:40 pm SW 9.7 15.5 0.7-- N--- 56.3----
2026-05-08 01:30 pm SW 9.7 17.5 0.7--NNW--- 56.3----
2026-05-08 01:20 pmWSW 9.7 13.6 0.7-- N--- 56.3----
2026-05-08 01:10 pmWSW 9.7 13.6 0.7--NNW--- 56.1----
2026-05-08 01:00 pmWSW 7.8 15.5 0.7--NNW--- 56.1----
2026-05-08 12:50 pmWSW 7.8 15.5 0.7-- N--- 56.3----
2026-05-08 12:40 pmWSW 9.7 11.7 0.7--NNW--- 56.3----
2026-05-08 12:30 pm NW 3.9 5.8 0.7--NNW--- 56.3----
2026-05-08 12:20 pm NW 3.9 9.7 0.7--NNW--- 56.3----
2026-05-08 12:10 pm W 7.8 15.5 0.7--NNW--- 56.1----
2026-05-08 12:00 pmWSW 7.8 11.7 0.7-- N--- 56.1----
2026-05-08 11:50 am W 7.8 11.7 0.7--NNW--- 56.1----
2026-05-08 11:40 amWSW 7.8 15.5 0.7--NNW--- 56.1----
2026-05-08 11:30 am W 7.8 11.7 0.7-- NW--- 56.1----
2026-05-08 11:20 amWSW 9.7 13.6 0.7--NNW--- 56.1----
2026-05-08 11:10 am W 7.8 13.6 0.7-- N--- 56.1----
2026-05-08 11:00 am W 5.8 9.7 0.7--NNW--- 56.1----
2026-05-08 10:50 am W 5.8 9.7 0.7--NNW--- 56.1----
2026-05-08 10:30 am W 7.8 11.7 0.7-- NW--- 55.9----
2026-05-08 10:20 am W 7.8 11.7 0.7-- NW--- 55.9----
2026-05-08 10:10 am W 7.8 11.7 0.7-- NW--- 55.9----
2026-05-08 10:00 am W 7.8 11.7 0.7-- NW--- 55.9----
2026-05-08 09:50 amWSW 9.7 13.6 0.7-- NW--- 55.9----
2026-05-08 09:40 amWSW 9.7 15.5 0.3-- NW--- 55.9----
2026-05-08 09:30 amWSW 9.7 13.6 0.3--NNW--- 55.9----
2026-05-08 09:20 am W 9.7 13.6 0.3-- NW--- 55.9----
2026-05-08 09:10 amWSW 9.7 15.5 0.3--WNW--- 55.9----
2026-05-08 09:00 amWSW 11.7 15.5 0.3--WNW--- 55.9----
2026-05-08 08:50 amWSW 11.7 15.5 0.3-- NW--- 55.9----
2026-05-08 08:40 amWSW 9.7 13.6 0.3--NNW--- 55.9----
2026-05-08 08:30 amWSW 11.7 13.6 0.3-- N--- 55.9----
2026-05-08 08:20 amWSW 9.7 13.6 0.3--NNW--- 55.9----
2026-05-08 08:10 am SW 9.7 13.6 0.3--NNW--- 55.9----
2026-05-08 08:00 amWSW 9.7 13.6 0.3-- N--- 55.9----
2026-05-08 07:50 am SW 9.7 15.5 0.3--NNW--- 55.9----
2026-05-08 07:40 am SW 9.7 13.6 0.3-- N--- 56.1----
2026-05-08 07:30 am SW 7.8 13.6 0.3-- N--- 56.1----
2026-05-08 07:20 am SW 7.8 9.7 0.3-- N--- 56.1----
2026-05-08 07:10 am SW 7.8 11.7 0.3--NNW--- 56.1----
2026-05-08 07:00 am SW 7.8 9.7 0.3--NNW--- 56.1----
2026-05-08 06:50 am SW 7.8 9.7 0.3--NNW--- 56.1----
2026-05-08 06:40 am SW 7.8 13.6 0.3--NNW--- 56.1----
2026-05-08 06:20 amWSW 9.7 11.7 0.3--NNW--- 56.1----
2026-05-08 06:10 amWSW 9.7 13.6 0.3--NNW--- 56.1----
2026-05-08 06:00 am SW 11.7 17.5 0.3-- N--- 56.1----
2026-05-08 05:40 am SW 9.7 11.7 0.3-- N--- 56.3----
2026-05-08 05:30 am SW 7.8 11.7 0.3-- N--- 56.3----
2026-05-08 05:20 am SW 7.8 9.7 0.3-- N--- 56.3----
2026-05-08 05:10 am SW 7.8 11.7 0.3-- N--- 56.3----
2026-05-08 05:00 am SW 7.8 9.7 0.3--NNW--- 56.3----
2026-05-08 04:50 am SW 7.8 9.7 0.3--NNW--- 56.3----
2026-05-08 04:30 am SW 7.8 11.7 0.3-- N--- 56.3----
2026-05-08 04:20 am SW 9.7 15.5 0.3--NNW--- 56.3----
2026-05-08 04:10 am SW 9.7 15.5 0.3--NNW--- 56.3----
2026-05-08 04:00 am SW 9.7 15.5 0.3--NNW--- 56.3----

Wave Summary
for 45203 as of (4:30 am EDT)
0830 GMT on 05/09/2026:

These wave data are displayed in rounded times.

     

Click on the graph icon in the table below to see a time series plot of the last five days of that observation.

5-day plot - Significant Wave Height Significant Wave Height (WVHT): 0.0 ft
Previous observations
TIME
(EDT)
5-day plot - Wave Height
WVHT
ft
5-day plot - Swell Height
SwH
ft
5-day plot - Swell Period
SwP
sec
5-day plot - Swell Direction
SwD
 
5-day plot - Wind Wave Height
WWH
ft
5-day plot - Wind Wave Period
WWP
sec
5-day plot - Wind Wave Direction
WWD
 
5-day plot - Wave Steepness
STEEPNESS
 
5-day plot - Average Wave Period
APD
sec
2026-05-09 04:20 am 0.0------ N/A-
2026-05-09 04:10 am 0.0------ N/A-
2026-05-09 04:00 am 0.0------ N/A-
2026-05-09 03:50 am 0.0------ N/A-
2026-05-09 03:40 am 0.0------ N/A-
2026-05-09 03:30 am 0.0------ N/A-
2026-05-09 03:20 am 0.0------ N/A-
2026-05-09 03:10 am 0.0------ N/A-
2026-05-09 03:00 am 0.0------ N/A-
2026-05-09 02:50 am 0.0------ N/A-
2026-05-09 02:40 am 0.0------ N/A-
2026-05-09 02:30 am 0.0------ N/A-
2026-05-09 02:20 am 0.0------ N/A-
2026-05-09 02:10 am 0.0------ N/A-
2026-05-09 02:00 am 0.0------ N/A-
2026-05-09 01:50 am 0.0------ N/A-
2026-05-09 01:40 am 0.0------ N/A-
2026-05-09 01:20 am 0.0------ N/A-
2026-05-09 01:10 am 0.0------ N/A-
2026-05-09 01:00 am 0.0------ N/A-
2026-05-09 12:50 am 0.0------ N/A-
2026-05-09 12:40 am 0.0------ N/A-
2026-05-09 12:30 am 0.0------ N/A-
2026-05-09 12:20 am 0.0------ N/A-
2026-05-09 12:00 am 0.0------ N/A-
2026-05-08 11:50 pm 0.0------ N/A-
2026-05-08 11:40 pm 0.0------ N/A-
2026-05-08 11:20 pm 0.0------ N/A-
2026-05-08 11:10 pm 0.3------ N/A-
2026-05-08 11:00 pm 0.0------ N/A-
2026-05-08 10:50 pm 0.0------ N/A-
2026-05-08 10:40 pm 0.0------ N/A-
2026-05-08 10:30 pm 0.0------ N/A-
2026-05-08 10:20 pm 0.0------ N/A-
2026-05-08 10:10 pm 0.0------ N/A-
2026-05-08 10:00 pm 0.0------ N/A-
2026-05-08 09:50 pm 0.0------ N/A-
2026-05-08 09:40 pm 0.0------ N/A-
2026-05-08 09:30 pm 0.0------ N/A-
2026-05-08 09:20 pm 0.0------ N/A-
2026-05-08 09:10 pm 0.0------ N/A-
2026-05-08 09:00 pm 0.0------ N/A-
2026-05-08 08:50 pm 0.0------ N/A-
2026-05-08 08:40 pm 0.0------ N/A-
2026-05-08 08:30 pm 0.3------ N/A-
2026-05-08 08:20 pm 0.3------ N/A-
2026-05-08 08:10 pm 0.3------ N/A-
2026-05-08 08:00 pm 0.0------ N/A-
2026-05-08 07:50 pm 0.0------ N/A-
2026-05-08 07:40 pm 0.0------ N/A-
2026-05-08 07:30 pm 0.0------ N/A-
2026-05-08 07:20 pm 0.0------ N/A-
2026-05-08 07:10 pm 0.0------ N/A-
2026-05-08 07:00 pm 0.0------ N/A-
2026-05-08 06:50 pm 0.0------ N/A-
2026-05-08 06:40 pm 0.3------ N/A-
2026-05-08 06:30 pm 0.3------ N/A-
2026-05-08 06:20 pm 0.3------ N/A-
2026-05-08 06:10 pm 0.0------ N/A-
2026-05-08 06:00 pm 0.0------ N/A-
2026-05-08 05:50 pm 0.0------ N/A-
2026-05-08 05:40 pm 0.3------ N/A-
2026-05-08 05:30 pm 0.3------ N/A-
2026-05-08 05:20 pm 0.3------ N/A-
2026-05-08 05:10 pm 0.3------ N/A-
2026-05-08 05:00 pm 0.0------ N/A-
2026-05-08 04:50 pm 0.3------ N/A-
2026-05-08 04:40 pm 0.3------ N/A-
2026-05-08 04:30 pm 0.3------ N/A-
2026-05-08 04:20 pm 0.3------ N/A-
2026-05-08 04:10 pm 0.3------ N/A-
2026-05-08 04:00 pm 0.3------ N/A-
2026-05-08 03:50 pm 0.3------ N/A-
2026-05-08 03:40 pm 0.3------ N/A-
2026-05-08 03:30 pm 0.3------ N/A-
2026-05-08 03:20 pm 0.3------ N/A-
2026-05-08 03:10 pm 0.3------ N/A-
2026-05-08 03:00 pm 0.3------ N/A-
2026-05-08 02:50 pm 0.3------ N/A-
2026-05-08 02:40 pm 0.3------ N/A-
2026-05-08 02:30 pm 0.3------ N/A-
2026-05-08 02:20 pm 0.3------ N/A-
2026-05-08 02:10 pm 0.3------ N/A-
2026-05-08 02:00 pm 0.3------ N/A-
2026-05-08 01:50 pm 0.3------ N/A-
2026-05-08 01:40 pm 0.7------ N/A-
2026-05-08 01:30 pm 0.7------ N/A-
2026-05-08 01:20 pm 0.7------ N/A-
2026-05-08 01:10 pm 0.7------ N/A-
2026-05-08 01:00 pm 0.7------ N/A-
2026-05-08 12:50 pm 0.7------ N/A-
2026-05-08 12:40 pm 0.7------ N/A-
2026-05-08 12:30 pm 0.7------ N/A-
2026-05-08 12:20 pm 0.7------ N/A-
2026-05-08 12:10 pm 0.7------ N/A-
2026-05-08 12:00 pm 0.7------ N/A-
2026-05-08 11:50 am 0.7------ N/A-
2026-05-08 11:40 am 0.7------ N/A-
2026-05-08 11:30 am 0.7------ N/A-
2026-05-08 11:20 am 0.7------ N/A-
2026-05-08 11:10 am 0.7------ N/A-
2026-05-08 11:00 am 0.7------ N/A-
2026-05-08 10:50 am 0.7------ N/A-
2026-05-08 10:30 am 0.7------ N/A-
2026-05-08 10:20 am 0.7------ N/A-
2026-05-08 10:10 am 0.7------ N/A-
2026-05-08 10:00 am 0.7------ N/A-
2026-05-08 09:50 am 0.7------ N/A-
2026-05-08 09:40 am 0.3------ N/A-
2026-05-08 09:30 am 0.3------ N/A-
2026-05-08 09:20 am 0.3------ N/A-
2026-05-08 09:10 am 0.3------ N/A-
2026-05-08 09:00 am 0.3------ N/A-
2026-05-08 08:50 am 0.3------ N/A-
2026-05-08 08:40 am 0.3------ N/A-
2026-05-08 08:30 am 0.3------ N/A-
2026-05-08 08:20 am 0.3------ N/A-
2026-05-08 08:10 am 0.3------ N/A-
2026-05-08 08:00 am 0.3------ N/A-
2026-05-08 07:50 am 0.3------ N/A-
2026-05-08 07:40 am 0.3------ N/A-
2026-05-08 07:30 am 0.3------ N/A-
2026-05-08 07:20 am 0.3------ N/A-
2026-05-08 07:10 am 0.3------ N/A-
2026-05-08 07:00 am 0.3------ N/A-
2026-05-08 06:50 am 0.3------ N/A-
2026-05-08 06:40 am 0.3------ N/A-
2026-05-08 06:20 am 0.3------ N/A-
2026-05-08 06:10 am 0.3------ N/A-
2026-05-08 06:00 am 0.3------ N/A-
2026-05-08 05:40 am 0.3------ N/A-
2026-05-08 05:30 am 0.3------ N/A-
2026-05-08 05:20 am 0.3------ N/A-
2026-05-08 05:10 am 0.3------ N/A-
2026-05-08 05:00 am 0.3------ N/A-
2026-05-08 04:50 am 0.3------ N/A-
2026-05-08 04:30 am 0.3------ N/A-
2026-05-08 04:20 am 0.3------ N/A-
2026-05-08 04:10 am 0.3------ N/A-
2026-05-08 04:00 am 0.3------ N/A-

Solar Radiation Conditions at 45203 as of
(4:30 am EDT)
0830 GMT on 05/09/2026:
     

Click on the graph icon in the table below to see a time series plot of the last five days of that observation.

5-day plot - Short Wave Radiation 1 Short Wave Radiation 1 (SRAD1): 0.0watts/meter2
Previous observations
TIME
(EDT)
5-day plot - Short Wave Radiation 1
SRAD1
w/m2
5-day plot - Short Wave Radiation 2
SRAD2
w/m2
5-day plot - Long Wave Radiation
LRAD
w/m2
2026-05-09 04:20 am 0.0--
2026-05-09 04:10 am 0.0--
2026-05-09 04:00 am 0.0--
2026-05-09 03:50 am 0.0--
2026-05-09 03:40 am 0.0--
2026-05-09 03:30 am 0.0--
2026-05-09 03:20 am 0.0--
2026-05-09 03:10 am 0.0--
2026-05-09 03:00 am 0.0--
2026-05-09 02:50 am 0.0--
2026-05-09 02:40 am 0.0--
2026-05-09 02:30 am 0.0--
2026-05-09 02:20 am 0.0--
2026-05-09 02:10 am 0.0--
2026-05-09 02:00 am 0.0--
2026-05-09 01:50 am 0.0--
2026-05-09 01:40 am 0.0--
2026-05-09 01:20 am 0.0--
2026-05-09 01:10 am 0.0--
2026-05-09 01:00 am 0.0--
2026-05-09 12:50 am 0.0--
2026-05-09 12:40 am 0.0--
2026-05-09 12:30 am 0.0--
2026-05-09 12:20 am 0.0--
2026-05-09 12:00 am 0.0--
2026-05-08 11:50 pm 0.0--
2026-05-08 11:40 pm 0.0--
2026-05-08 11:20 pm 0.0--
2026-05-08 11:10 pm 0.0--
2026-05-08 11:00 pm 0.0--
2026-05-08 10:50 pm 0.0--
2026-05-08 10:40 pm 0.0--
2026-05-08 10:30 pm 0.0--
2026-05-08 10:20 pm 0.0--
2026-05-08 10:10 pm 0.0--
2026-05-08 10:00 pm 0.0--
2026-05-08 09:50 pm 0.0--
2026-05-08 09:40 pm 0.0--
2026-05-08 09:30 pm 0.0--
2026-05-08 09:20 pm 0.0--
2026-05-08 09:10 pm 0.0--
2026-05-08 09:00 pm 0.2--
2026-05-08 08:50 pm 0.7--
2026-05-08 08:40 pm 1.5--
2026-05-08 08:30 pm 6.9--
2026-05-08 08:20 pm 14.1--
2026-05-08 08:10 pm 34.2--
2026-05-08 08:00 pm 53.5--
2026-05-08 07:50 pm 45.5--
2026-05-08 07:40 pm 29.5--
2026-05-08 07:30 pm 29.6--
2026-05-08 07:20 pm 34.4--
2026-05-08 07:10 pm 40.6--
2026-05-08 07:00 pm 53.8--
2026-05-08 06:50 pm 34.9--
2026-05-08 06:40 pm 70.5--
2026-05-08 06:30 pm 54.6--
2026-05-08 06:20 pm 44.9--
2026-05-08 06:10 pm 31.2--
2026-05-08 06:00 pm 43.5--
2026-05-08 05:50 pm 55.6--
2026-05-08 05:40 pm 92.2--
2026-05-08 05:30 pm 50.6--
2026-05-08 05:20 pm 39.1--
2026-05-08 05:10 pm 46.5--
2026-05-08 05:00 pm 42.1--
2026-05-08 04:50 pm 51.4--
2026-05-08 04:40 pm 81.9--
2026-05-08 04:30 pm 116.0--
2026-05-08 04:20 pm 156.7--
2026-05-08 04:10 pm 213.5--
2026-05-08 04:00 pm 177.3--
2026-05-08 03:50 pm 107.4--
2026-05-08 03:40 pm 107.1--
2026-05-08 03:30 pm 124.7--
2026-05-08 03:20 pm 242.5--
2026-05-08 03:10 pm 247.2--
2026-05-08 03:00 pm 529.3--
2026-05-08 02:50 pm 656.9--
2026-05-08 02:40 pm 520.1--
2026-05-08 02:30 pm 756.2--
2026-05-08 02:20 pm 804.0--
2026-05-08 02:10 pm 618.2--
2026-05-08 02:00 pm 740.5--
2026-05-08 01:50 pm 793.0--
2026-05-08 01:40 pm 759.6--
2026-05-08 01:30 pm 798.4--
2026-05-08 01:20 pm 607.9--
2026-05-08 01:10 pm 690.8--
2026-05-08 01:00 pm 480.9--
2026-05-08 12:50 pm 283.9--
2026-05-08 12:40 pm 264.3--
2026-05-08 12:30 pm 262.4--
2026-05-08 12:20 pm 430.6--
2026-05-08 12:10 pm 313.4--
2026-05-08 12:00 pm 304.6--
2026-05-08 11:50 am 350.3--
2026-05-08 11:40 am 327.6--
2026-05-08 11:30 am 336.2--
2026-05-08 11:20 am 493.0--
2026-05-08 11:10 am 352.4--
2026-05-08 11:00 am 423.5--
2026-05-08 10:50 am 385.4--
2026-05-08 10:30 am 588.0--
2026-05-08 10:20 am 610.3--
2026-05-08 10:10 am 647.2--
2026-05-08 10:00 am 600.7--
2026-05-08 09:50 am 599.9--
2026-05-08 09:40 am 560.8--
2026-05-08 09:30 am 523.4--
2026-05-08 09:20 am 220.9--
2026-05-08 09:10 am 201.1--
2026-05-08 09:00 am 195.0--
2026-05-08 08:50 am 226.0--
2026-05-08 08:40 am 188.0--
2026-05-08 08:30 am 352.3--
2026-05-08 08:20 am 165.8--
2026-05-08 08:10 am 77.3--
2026-05-08 08:00 am 90.3--
2026-05-08 07:50 am 76.5--
2026-05-08 07:40 am 108.9--
2026-05-08 07:30 am 79.3--
2026-05-08 07:20 am 65.5--
2026-05-08 07:10 am 74.4--
2026-05-08 07:00 am 28.3--
2026-05-08 06:50 am 9.7--
2026-05-08 06:40 am 5.5--
2026-05-08 06:20 am 1.5--
2026-05-08 06:10 am 0.9--
2026-05-08 06:00 am 0.2--
2026-05-08 05:40 am 0.0--
2026-05-08 05:30 am 0.0--
2026-05-08 05:20 am 0.0--
2026-05-08 05:10 am 0.0--
2026-05-08 05:00 am 0.0--
2026-05-08 04:50 am 0.0--
2026-05-08 04:30 am 0.0--
2026-05-08 04:20 am 0.0--
2026-05-08 04:10 am 0.0--
2026-05-08 04:00 am 0.0--